UTDD

Details ICAO UTDD (DYU)
Name DUSHANBE
Region Tajikistan, Turkmenistan and Uzbekistan
Timezone Asia/Dushanbe (UTC+5.0)
Plans Departing 102
Arriving 100
Stats Elevation 2,575 ft / 785 m (AMSL)
Location 38.543486° 68.824637°
Runways 1
Magnetic Variation 4.469° E
Sunrise 2018-05-23 00:08:40 UTC / 2018-05-23 05:08:40 Local
Sunset 2018-05-23 14:37:04 UTC / 2018-05-23 19:37:04 Local
Advertisement - Login to hide

Runways

ID Width Length Bearing (true) Bearing (mag) Surface Threshold Offset Overrun Length
09 147 ft / 45 m 10,157 ft / 3,096 m 90.06° 85.59° Asphalt 0 ft / 0 m 0 ft / 0 m
27 147 ft / 45 m 10,157 ft / 3,096 m 270.08° 265.61° Asphalt 1,335 ft / 407 m 0 ft / 0 m

Map

Weather


0- 5 10 15 20 25 30 35+ Temperature / ° C

Clouds and Precipitation
Forecast for 2018-05-23 18:00 UTC. Updated 13 minutes ago

Ground ~20,000 ft ~40,000 ft Winds

METAR

UTDD 231730Z VRB01MPS 9999 FEW066CB 16/12 Q1020 R09/19//60 NOSIG RMK QFE696/0929

TAF

TAF TAF UTDD 231500Z 2316/2404 VRB02MPS 6000 SCT060CB BKN100 TEMPO 2316/2322 VRB07MPS 3100 -TSRA BR

Frequencies

Recorded 126.20 MHz ATIS
Tower 119.20 MHz TWR
Ground 121.70 MHz GND
Approach 127.10 MHz APP
Warning: Do not use this data for real-world aviation or navigation. No guarantee of current accuracy is given.